Time;durP1;ratioP1;P1;durP2;ratioP2;P2;SDS_P1;SDS_P2;PMS_P1;PMS_P2;Temp;Humidity;BMP_temperature;BMP_pressure;BME280_temperature;BME280_humidity;BME280_pressure;Samples;Min_cycle;Max_cycle;Signal;HPM_P1;HPM_P2
2024/04/07 00:00:21;;;;;;;2.67;2.00;;;16.00;57.50;;;;;;4983884;28;20634;-74
2024/04/07 00:02:48;;;;;;;4.33;2.40;;;15.90;57.70;;;;;;4969411;28;20649;-73
2024/04/07 00:05:14;;;;;;;5.27;2.53;;;15.90;58.00;;;;;;5007319;28;20674;-73
2024/04/07 00:07:41;;;;;;;3.43;1.93;;;15.80;58.40;;;;;;4984337;28;21053;-74
2024/04/07 00:10:07;;;;;;;3.60;2.07;;;15.80;57.60;;;;;;4971855;28;21211;-74
2024/04/07 00:12:33;;;;;;;5.77;2.33;;;15.80;57.60;;;;;;5005060;28;20614;-74
2024/04/07 00:15:01;;;;;;;2.70;2.03;;;15.70;58.10;;;;;;5002133;28;20625;-74
2024/04/07 00:17:27;;;;;;;3.30;2.43;;;15.70;57.50;;;;;;5007056;28;20640;-74
2024/04/07 00:19:53;;;;;;;2.87;2.37;;;15.70;57.90;;;;;;4998329;28;20626;-76
2024/04/07 00:22:20;;;;;;;2.90;2.17;;;15.70;57.80;;;;;;4974147;28;21196;-75
2024/04/07 00:24:46;;;;;;;3.20;2.20;;;15.70;56.70;;;;;;5003676;28;21191;-75
2024/04/07 00:27:12;;;;;;;2.50;2.17;;;15.70;57.90;;;;;;5004996;28;20618;-75
2024/04/07 00:29:38;;;;;;;5.83;2.80;;;15.70;57.90;;;;;;4976904;28;20290;-74
2024/04/07 00:32:07;;;;;;;4.20;2.23;;;15.60;58.10;;;;;;4999109;28;20737;-74
2024/04/07 00:34:33;;;;;;;5.50;2.17;;;15.70;58.20;;;;;;4975342;28;20630;-74
2024/04/07 00:37:00;;;;;;;3.00;1.90;;;15.60;58.30;;;;;;4982200;28;20638;-74
2024/04/07 00:39:26;;;;;;;3.10;2.50;;;15.60;58.10;;;;;;5002599;28;20304;-74
2024/04/07 00:41:53;;;;;;;3.33;2.70;;;15.50;58.50;;;;;;4987970;28;20740;-74
2024/04/07 00:44:18;;;;;;;3.27;2.97;;;15.50;58.70;;;;;;5004886;28;20615;-74
2024/04/07 00:46:45;;;;;;;3.30;2.37;;;15.50;58.60;;;;;;4974623;28;20784;-74
2024/04/07 00:49:13;;;;;;;3.17;2.23;;;15.40;58.60;;;;;;4979958;28;20206;-74
2024/04/07 00:51:40;;;;;;;4.40;2.30;;;15.40;59.00;;;;;;4996761;28;20634;-74
2024/04/07 00:54:06;;;;;;;3.20;2.23;;;15.40;59.00;;;;;;4998151;28;20624;-74
2024/04/07 00:56:35;;;;;;;5.30;2.50;;;15.40;59.20;;;;;;4974246;28;21195;-74
2024/04/07 00:59:01;;;;;;;3.30;2.17;;;15.30;59.20;;;;;;4968140;28;21212;-74
2024/04/07 01:01:28;;;;;;;2.97;2.30;;;15.30;58.80;;;;;;5006635;28;20638;-75
2024/04/07 01:03:54;;;;;;;3.80;2.40;;;15.30;59.00;;;;;;4984105;28;20672;-75
2024/04/07 01:06:22;;;;;;;3.83;2.30;;;15.30;58.80;;;;;;4972013;28;20957;-75
2024/04/07 01:08:48;;;;;;;6.57;2.10;;;15.30;58.90;;;;;;4972473;28;20225;-75
2024/04/07 01:11:16;;;;;;;4.87;2.90;;;15.30;58.60;;;;;;4995855;28;21183;-75
2024/04/07 01:13:42;;;;;;;3.70;2.37;;;15.30;58.30;;;;;;4975221;28;20990;-73
2024/04/07 01:16:09;;;;;;;3.10;2.17;;;15.30;58.20;;;;;;4973167;28;20621;-74
2024/04/07 01:18:34;;;;;;;2.57;2.00;;;15.30;58.90;;;;;;4977808;28;20213;-74
2024/04/07 01:21:02;;;;;;;2.60;2.10;;;15.20;59.00;;;;;;4974132;28;20634;-75
2024/04/07 01:23:29;;;;;;;3.80;2.13;;;15.20;58.90;;;;;;4969854;28;20658;-75
2024/04/07 01:25:57;;;;;;;3.93;2.40;;;15.20;58.20;;;;;;4992630;28;20765;-75
2024/04/07 01:28:25;;;;;;;3.20;2.10;;;15.20;58.00;;;;;;4972305;28;20636;-75
2024/04/07 01:30:52;;;;;;;2.63;2.07;;;15.20;58.60;;;;;;4974291;28;20670;-75
2024/04/07 01:33:19;;;;;;;4.13;2.43;;;15.20;59.40;;;;;;4972037;28;20634;-75
2024/04/07 01:35:48;;;;;;;3.60;2.53;;;15.20;59.30;;;;;;4992431;28;20641;-75
2024/04/07 01:38:15;;;;;;;6.47;2.67;;;15.20;59.10;;;;;;5002462;28;21089;-75
2024/04/07 01:40:45;;;;;;;3.13;2.40;;;15.10;59.20;;;;;;4969933;28;20668;-75
2024/04/07 01:43:13;;;;;;;3.70;2.30;;;15.10;59.30;;;;;;4989610;28;20808;-75
2024/04/07 01:45:40;;;;;;;3.47;2.50;;;15.00;58.70;;;;;;4969687;28;20658;-75
2024/04/07 01:48:11;;;;;;;2.80;2.50;;;15.00;57.90;;;;;;4968030;28;20626;-75
2024/04/07 01:50:38;;;;;;;4.50;2.33;;;14.90;58.60;;;;;;4994001;28;20978;-75
2024/04/07 01:53:04;;;;;;;3.47;1.87;;;14.90;58.80;;;;;;4969460;28;20664;-75
2024/04/07 01:55:31;;;;;;;3.37;2.17;;;14.90;59.30;;;;;;4972671;28;20655;-75
2024/04/07 01:57:59;;;;;;;3.10;1.90;;;15.00;58.60;;;;;;5003890;28;20630;-75
2024/04/07 02:00:27;;;;;;;3.13;2.60;;;14.90;59.10;;;;;;4992166;28;20626;-75
2024/04/07 02:02:54;;;;;;;2.43;1.90;;;14.90;58.80;;;;;;4966677;28;21004;-75
2024/04/07 02:05:21;;;;;;;3.03;2.07;;;14.90;59.30;;;;;;4984150;28;20665;-75
2024/04/07 02:07:47;;;;;;;3.13;2.20;;;14.90;59.40;;;;;;4992512;28;20632;-75
2024/04/07 02:10:14;;;;;;;2.63;1.90;;;14.90;59.80;;;;;;4975631;28;20636;-75
2024/04/07 02:12:40;;;;;;;2.07;1.77;;;14.90;59.30;;;;;;5000358;28;20629;-75
2024/04/07 02:15:09;;;;;;;2.43;1.70;;;14.90;59.20;;;;;;4968914;28;20628;-75
2024/04/07 02:17:37;;;;;;;2.40;1.90;;;15.00;58.70;;;;;;4974579;28;21195;-75
2024/04/07 02:20:08;;;;;;;1.93;1.50;;;14.90;57.90;;;;;;4971114;28;20629;-75
2024/04/07 02:22:36;;;;;;;3.20;1.87;;;15.10;57.30;;;;;;4999257;28;20745;-75
2024/04/07 02:25:03;;;;;;;3.63;1.97;;;15.20;57.10;;;;;;4983487;28;20669;-74
2024/04/07 02:27:31;;;;;;;3.30;1.57;;;15.40;56.30;;;;;;4967799;28;20669;-75
2024/04/07 02:29:58;;;;;;;2.37;1.70;;;15.50;56.50;;;;;;4982378;28;20646;-75
2024/04/07 02:32:28;;;;;;;3.80;1.50;;;15.50;56.50;;;;;;4990646;28;20633;-75
2024/04/07 02:34:57;;;;;;;2.03;1.30;;;15.60;56.40;;;;;;4962665;28;20625;-75
2024/04/07 02:37:25;;;;;;;2.20;1.70;;;15.70;56.00;;;;;;4967597;28;21004;-75
2024/04/07 02:39:51;;;;;;;2.30;1.77;;;15.90;55.90;;;;;;4977474;28;20981;-75
2024/04/07 02:42:19;;;;;;;4.37;1.70;;;16.10;55.30;;;;;;4969334;28;20669;-75
2024/04/07 02:50:18;;;;;;;6.37;1.70;;;16.50;55.40;;;;;;4969848;28;20644;-75
2024/04/07 02:52:47;;;;;;;2.60;1.50;;;16.50;55.10;;;;;;4974549;28;20618;-75
2024/04/07 02:55:15;;;;;;;2.30;1.70;;;16.60;55.10;;;;;;4980137;28;20651;-75
2024/04/07 02:57:42;;;;;;;1.83;1.20;;;16.50;55.50;;;;;;5022615;28;20733;-74
2024/04/07 03:00:13;;;;;;;3.80;1.73;;;16.60;55.20;;;;;;5010404;28;21066;-74
2024/04/07 03:02:43;;;;;;;2.80;2.00;;;16.60;55.60;;;;;;4972837;28;20203;-74
2024/04/07 03:05:11;;;;;;;2.93;1.40;;;16.60;55.30;;;;;;4994199;28;20640;-75
2024/04/07 03:07:37;;;;;;;2.20;1.40;;;16.60;55.40;;;;;;4974508;28;20773;-74
2024/04/07 03:10:06;;;;;;;3.03;2.20;;;16.70;55.70;;;;;;4974737;28;20660;-74
2024/04/07 03:12:32;;;;;;;3.53;1.87;;;16.70;55.10;;;;;;4976875;28;20699;-74
2024/04/07 03:15:03;;;;;;;4.87;1.90;;;16.80;55.50;;;;;;4988019;28;20661;-74
2024/04/07 03:17:29;;;;;;;6.67;1.67;;;16.70;55.50;;;;;;4978087;28;20733;-74
2024/04/07 03:19:57;;;;;;;2.00;1.33;;;16.80;55.50;;;;;;4978264;28;20631;-74
2024/04/07 03:22:23;;;;;;;2.13;1.30;;;16.70;55.90;;;;;;4999179;28;20620;-74
2024/04/07 03:24:50;;;;;;;2.97;1.90;;;16.70;55.40;;;;;;5004414;28;20618;-74
2024/04/07 03:27:16;;;;;;;2.70;1.63;;;16.70;56.00;;;;;;4998232;28;20223;-74
2024/04/07 03:29:43;;;;;;;2.50;1.77;;;16.60;56.10;;;;;;5005699;28;20633;-74
2024/04/07 03:32:09;;;;;;;2.40;1.50;;;16.50;56.40;;;;;;4993205;28;20640;-75
2024/04/07 03:34:36;;;;;;;2.60;1.40;;;16.50;57.10;;;;;;4966338;28;20634;-75
2024/04/07 03:37:06;;;;;;;1.90;1.30;;;16.30;57.80;;;;;;4981756;28;20212;-75
2024/04/07 03:39:33;;;;;;;2.50;1.40;;;16.30;58.20;;;;;;4989697;28;20617;-75
2024/04/07 03:42:00;;;;;;;2.17;1.50;;;16.20;57.60;;;;;;4992294;28;21163;-75
2024/04/07 03:44:27;;;;;;;2.50;1.73;;;16.20;58.40;;;;;;4994966;28;20622;-75
2024/04/07 03:46:53;;;;;;;3.13;1.83;;;16.10;58.70;;;;;;4975269;28;20687;-75
2024/04/07 03:49:20;;;;;;;3.60;1.60;;;16.10;58.10;;;;;;4978405;28;20648;-75
2024/04/07 03:51:46;;;;;;;8.13;1.77;;;16.00;60.20;;;;;;4993899;28;20618;-75
2024/04/07 03:54:14;;;;;;;2.40;1.60;;;16.00;59.80;;;;;;4975658;28;20642;-75
2024/04/07 03:56:40;;;;;;;2.43;1.47;;;15.90;59.30;;;;;;4973880;28;20225;-75
2024/04/07 03:59:07;;;;;;;3.43;1.80;;;16.10;59.30;;;;;;4976314;28;20626;-75
2024/04/07 04:01:33;;;;;;;2.87;1.57;;;16.10;58.80;;;;;;5001651;28;20205;-75
2024/04/07 04:04:00;;;;;;;2.80;1.83;;;16.10;58.90;;;;;;4965542;28;20737;-75
2024/04/07 04:06:26;;;;;;;2.80;1.73;;;16.00;61.30;;;;;;4978983;28;20661;-75
2024/04/07 04:08:53;;;;;;;2.73;1.97;;;16.00;59.30;;;;;;4982879;28;20657;-75
2024/04/07 04:11:20;;;;;;;2.63;1.67;;;16.00;59.30;;;;;;5014369;28;20721;-75
2024/04/07 04:13:50;;;;;;;6.40;1.97;;;16.10;58.50;;;;;;5002150;28;20721;-75
2024/04/07 04:16:16;;;;;;;2.07;1.67;;;16.00;60.60;;;;;;5003077;28;20691;-75
2024/04/07 04:18:43;;;;;;;2.87;2.27;;;15.90;61.00;;;;;;4976656;28;20629;-75
2024/04/07 04:21:10;;;;;;;2.43;1.90;;;15.90;59.60;;;;;;4977681;28;20983;-75
2024/04/07 04:23:37;;;;;;;3.37;2.13;;;15.80;60.60;;;;;;4963411;28;20725;-75
2024/04/07 04:26:03;;;;;;;2.30;1.93;;;15.90;59.30;;;;;;4984631;28;20657;-75
2024/04/07 04:28:31;;;;;;;3.50;1.50;;;15.90;60.30;;;;;;4991252;28;20630;-75
2024/04/07 04:31:01;;;;;;;3.20;1.80;;;15.80;59.80;;;;;;4998481;28;20640;-75
2024/04/07 04:33:28;;;;;;;2.80;2.03;;;15.70;61.30;;;;;;4979146;28;20737;-75
2024/04/07 04:35:54;;;;;;;2.10;1.43;;;15.80;60.20;;;;;;4980165;28;20977;-75
2024/04/07 04:38:21;;;;;;;3.70;2.17;;;15.80;59.50;;;;;;5007153;28;20639;-75
2024/04/07 04:40:54;;;;;;;3.87;2.20;;;15.70;59.90;;;;;;5017017;28;21189;-74
2024/04/07 04:43:21;;;;;;;2.30;1.87;;;15.80;60.70;;;;;;5008527;28;20638;-74
2024/04/07 04:45:49;;;;;;;5.63;2.27;;;15.70;61.30;;;;;;5014583;28;20636;-74
2024/04/07 04:48:16;;;;;;;3.67;2.20;;;15.70;60.80;;;;;;4985071;28;20626;-74
2024/04/07 04:50:51;;;;;;;2.97;1.93;;;15.70;60.40;;;;;;4971414;28;20633;-73
2024/04/07 04:53:18;;;;;;;2.83;1.83;;;15.70;60.40;;;;;;4988545;28;20653;-73
2024/04/07 04:55:44;;;;;;;2.57;1.50;;;15.60;61.30;;;;;;4992103;28;20640;-74
2024/04/07 04:58:11;;;;;;;2.83;2.07;;;15.60;61.90;;;;;;4970492;28;21020;-74
2024/04/07 05:00:37;;;;;;;2.37;1.73;;;15.50;62.20;;;;;;4992014;28;20576;-74
2024/04/07 05:03:05;;;;;;;3.60;1.87;;;15.40;64.70;;;;;;4968051;28;20637;-74
2024/04/07 05:05:31;;;;;;;3.60;2.30;;;15.30;66.00;;;;;;4993274;28;20986;-74
2024/04/07 05:07:58;;;;;;;2.80;1.70;;;15.10;66.60;;;;;;4978313;28;20657;-74
2024/04/07 05:10:24;;;;;;;3.07;1.77;;;15.10;66.50;;;;;;4995807;28;20664;-74
2024/04/07 05:12:50;;;;;;;3.53;1.93;;;15.00;67.10;;;;;;4986952;28;20706;-74
2024/04/07 05:15:16;;;;;;;2.70;2.03;;;15.00;67.50;;;;;;4970298;28;20206;-75
2024/04/07 05:17:46;;;;;;;2.03;1.27;;;14.90;68.20;;;;;;4996772;28;20635;-74
2024/04/07 05:20:14;;;;;;;2.27;1.67;;;14.80;68.40;;;;;;4990363;28;20649;-74
2024/04/07 05:22:41;;;;;;;3.73;1.73;;;14.80;68.10;;;;;;4991730;28;20633;-75
2024/04/07 05:25:07;;;;;;;4.40;1.97;;;14.70;68.40;;;;;;4968194;28;20638;-75
2024/04/07 05:27:34;;;;;;;6.27;2.10;;;14.60;68.80;;;;;;4967288;28;21028;-74
2024/04/07 05:30:00;;;;;;;4.97;2.97;;;14.60;68.90;;;;;;4968562;28;20594;-74
2024/04/07 05:32:28;;;;;;;3.30;2.47;;;14.70;69.80;;;;;;4969321;28;20623;-75
2024/04/07 05:34:54;;;;;;;3.17;2.20;;;14.70;70.90;;;;;;4965295;28;20632;-74
2024/04/07 05:37:22;;;;;;;3.40;2.30;;;14.70;69.90;;;;;;4970126;28;20638;-72
2024/04/07 05:39:49;;;;;;;2.87;2.00;;;14.80;69.70;;;;;;4969824;28;20634;-72
2024/04/07 05:42:16;;;;;;;4.10;2.10;;;14.80;69.30;;;;;;5003246;28;21097;-72
2024/04/07 05:44:42;;;;;;;2.97;2.20;;;14.70;68.80;;;;;;4972937;28;20644;-72
2024/04/07 05:47:09;;;;;;;4.00;2.47;;;14.70;69.80;;;;;;4993927;28;20669;-72
2024/04/07 05:49:36;;;;;;;2.40;1.60;;;14.80;70.50;;;;;;4977845;28;20206;-73
2024/04/07 05:52:03;;;;;;;3.07;1.90;;;14.80;68.80;;;;;;4992824;28;20630;-72
2024/04/07 05:54:30;;;;;;;3.20;1.73;;;14.70;70.00;;;;;;4961393;28;20642;-72
2024/04/07 05:56:57;;;;;;;1.73;1.50;;;14.70;70.60;;;;;;4988051;28;20637;-72
2024/04/07 05:59:23;;;;;;;3.57;1.80;;;14.70;70.90;;;;;;4996427;28;20630;-72
2024/04/07 06:01:50;;;;;;;3.30;1.53;;;14.80;71.60;;;;;;5014115;28;20628;-72
2024/04/07 06:04:15;;;;;;;4.13;2.13;;;14.80;71.60;;;;;;5016239;28;20624;-72
2024/04/07 06:06:42;;;;;;;2.80;2.10;;;14.90;67.50;;;;;;4984196;28;21296;-72
2024/04/07 06:09:08;;;;;;;3.90;2.30;;;14.90;70.50;;;;;;4998451;28;20213;-77
2024/04/07 06:11:36;;;;;;;2.70;2.07;;;14.90;70.40;;;;;;5013500;28;20633;-72
2024/04/07 06:14:03;;;;;;;2.30;1.60;;;15.00;71.60;;;;;;4966534;28;20644;-74
2024/04/07 06:16:29;;;;;;;3.17;2.10;;;15.00;73.60;;;;;;5000256;28;21240;-73
2024/04/07 06:18:56;;;;;;;2.20;1.63;;;15.10;73.10;;;;;;4982158;28;21130;-73
2024/04/07 06:21:22;;;;;;;3.47;2.17;;;15.10;73.20;;;;;;4981754;28;21198;-73
2024/04/07 06:23:48;;;;;;;2.60;2.27;;;15.00;74.40;;;;;;4971339;28;21892;-72
2024/04/07 06:26:15;;;;;;;4.90;1.93;;;15.00;74.50;;;;;;4971881;28;21058;-72
2024/04/07 06:28:43;;;;;;;5.27;2.10;;;15.10;75.10;;;;;;4969342;28;20721;-73
2024/04/07 06:31:10;;;;;;;2.63;2.20;;;15.20;75.10;;;;;;4971801;28;20635;-73
2024/04/07 06:33:36;;;;;;;3.37;2.60;;;15.20;75.20;;;;;;4970880;28;20627;-73
2024/04/07 06:36:03;;;;;;;3.37;2.40;;;15.20;76.10;;;;;;4974502;28;20658;-72
2024/04/07 06:38:29;;;;;;;6.13;2.63;;;15.20;76.10;;;;;;4971486;28;20729;-72
2024/04/07 06:40:56;;;;;;;2.97;2.20;;;15.20;75.70;;;;;;4991653;28;20625;-72
2024/04/07 06:43:22;;;;;;;3.33;1.90;;;15.20;76.60;;;;;;4966360;28;20209;-70
2024/04/07 06:45:50;;;;;;;5.43;2.30;;;15.20;77.10;;;;;;4980389;28;20630;-70
2024/04/07 06:48:16;;;;;;;2.83;2.17;;;15.20;77.30;;;;;;5006569;28;20223;-71
2024/04/07 06:50:42;;;;;;;3.07;2.30;;;15.20;78.60;;;;;;4974469;28;20718;-75
2024/04/07 06:53:08;;;;;;;3.40;1.90;;;15.30;78.40;;;;;;4989879;28;20652;-73
2024/04/07 06:55:35;;;;;;;4.57;2.50;;;15.30;77.70;;;;;;4975250;28;20636;-72
2024/04/07 06:58:01;;;;;;;3.57;2.37;;;15.40;77.60;;;;;;4996057;28;20207;-73
2024/04/07 07:00:28;;;;;;;3.77;3.00;;;15.40;80.90;;;;;;4977200;28;20717;-73
2024/04/07 07:02:55;;;;;;;2.73;2.27;;;15.40;82.50;;;;;;4969965;28;20206;-72
2024/04/07 07:05:22;;;;;;;4.93;2.57;;;15.50;79.10;;;;;;4974554;28;20635;-73
2024/04/07 07:07:48;;;;;;;2.80;2.00;;;15.60;79.10;;;;;;4967517;28;20645;-72
2024/04/07 07:10:15;;;;;;;2.87;2.10;;;15.80;81.20;;;;;;4980750;28;20634;-73
2024/04/07 07:12:41;;;;;;;2.90;2.10;;;15.90;78.50;;;;;;4981209;28;20229;-72
2024/04/07 07:15:08;;;;;;;5.53;2.13;;;16.10;78.10;;;;;;4974674;28;20732;-72
2024/04/07 07:17:34;;;;;;;4.50;2.57;;;16.20;76.30;;;;;;4980348;28;20211;-72
2024/04/07 07:20:02;;;;;;;6.03;1.63;;;16.30;74.30;;;;;;4989521;28;21186;-72
2024/04/07 07:22:28;;;;;;;2.50;1.67;;;16.50;75.60;;;;;;4990626;28;20635;-71
2024/04/07 07:24:54;;;;;;;4.47;2.03;;;16.60;72.70;;;;;;4970775;28;20726;-72
2024/04/07 07:27:20;;;;;;;6.13;2.37;;;16.70;73.70;;;;;;5015278;28;20440;-72
2024/04/07 07:29:47;;;;;;;2.77;2.03;;;16.70;74.60;;;;;;4975241;28;20705;-71
2024/04/07 07:32:13;;;;;;;3.03;2.07;;;16.80;73.00;;;;;;4973215;28;20207;-71
2024/04/07 07:34:39;;;;;;;2.33;1.40;;;16.90;71.00;;;;;;4975459;28;20716;-71
2024/04/07 07:37:06;;;;;;;3.40;1.97;;;17.00;69.80;;;;;;4976235;28;20210;-72
2024/04/07 07:39:33;;;;;;;3.40;1.97;;;17.00;70.80;;;;;;4967134;28;20637;-71
2024/04/07 07:41:59;;;;;;;5.10;2.10;;;17.10;71.70;;;;;;4976033;28;20636;-72
2024/04/07 07:44:26;;;;;;;4.80;2.23;;;17.20;72.50;;;;;;4970378;28;20621;-72
2024/04/07 07:46:52;;;;;;;6.07;1.77;;;17.30;68.80;;;;;;4983243;28;20259;-72
2024/04/07 07:49:20;;;;;;;5.73;2.80;;;17.50;66.90;;;;;;4974763;28;21246;-72
2024/04/07 07:51:46;;;;;;;5.83;1.83;;;17.80;70.40;;;;;;4975182;28;20630;-72
2024/04/07 07:54:14;;;;;;;7.07;1.90;;;18.00;68.70;;;;;;4971897;28;20722;-72
2024/04/07 07:56:40;;;;;;;7.17;2.60;;;18.20;67.00;;;;;;5002365;28;20507;-74
2024/04/07 07:59:07;;;;;;;5.20;2.33;;;18.50;59.20;;;;;;4980888;28;20626;-72
2024/04/07 08:01:32;;;;;;;4.03;1.80;;;18.60;59.80;;;;;;4973924;28;20586;-73
2024/04/07 08:03:59;;;;;;;4.93;2.23;;;18.80;57.60;;;;;;4971524;28;20964;-74
2024/04/07 08:06:25;;;;;;;4.07;1.63;;;18.90;59.20;;;;;;4997488;28;20198;-72
2024/04/07 08:08:52;;;;;;;7.80;2.10;;;19.00;57.60;;;;;;4968098;28;20644;-73
2024/04/07 08:11:20;;;;;;;3.33;1.87;;;19.00;55.70;;;;;;4978185;28;20634;-71
2024/04/07 08:13:46;;;;;;;3.80;2.00;;;19.10;56.10;;;;;;4976067;28;20614;-73
2024/04/07 08:16:13;;;;;;;5.43;1.73;;;19.20;56.60;;;;;;4973391;28;20623;-74
2024/04/07 08:18:40;;;;;;;5.63;1.80;;;19.20;57.10;;;;;;4970635;28;20203;-72
2024/04/07 08:21:07;;;;;;;7.90;1.70;;;19.20;56.30;;;;;;4970651;28;20638;-72
2024/04/07 08:23:34;;;;;;;6.83;2.00;;;19.30;57.20;;;;;;4966289;28;20628;-72
2024/04/07 08:26:00;;;;;;;3.73;1.63;;;19.30;56.30;;;;;;4976986;28;20794;-72
2024/04/07 08:28:30;;;;;;;5.90;2.63;;;19.40;56.10;;;;;;4969466;28;20672;-72
2024/04/07 08:30:57;;;;;;;3.40;2.23;;;19.50;57.40;;;;;;4970788;28;20713;-73
2024/04/07 08:33:24;;;;;;;3.33;1.70;;;19.50;58.00;;;;;;4972410;28;20824;-72
2024/04/07 08:35:50;;;;;;;5.43;1.90;;;19.60;58.10;;;;;;4968545;28;20695;-72
2024/04/07 08:38:18;;;;;;;5.03;2.00;;;19.60;57.80;;;;;;4969182;28;20888;-73
2024/04/07 08:40:46;;;;;;;4.13;2.03;;;19.60;56.90;;;;;;4969634;28;20210;-74
2024/04/07 08:43:19;;;;;;;5.40;2.10;;;19.70;55.50;;;;;;4972557;28;21008;-75
2024/04/07 08:45:49;;;;;;;5.80;1.93;;;19.80;55.40;;;;;;4978961;28;20968;-72
2024/04/07 08:48:18;;;;;;;4.80;2.00;;;19.70;55.50;;;;;;4972162;28;20663;-72
2024/04/07 08:50:45;;;;;;;3.37;2.17;;;19.70;56.20;;;;;;4985926;28;20634;-73
2024/04/07 08:53:15;;;;;;;7.93;1.90;;;19.70;56.30;;;;;;4968443;28;20622;-74
2024/04/07 08:55:42;;;;;;;6.40;2.20;;;19.80;56.10;;;;;;4998636;28;20639;-72
2024/04/07 08:58:09;;;;;;;5.67;1.63;;;19.70;56.00;;;;;;4971343;28;20965;-72
2024/04/07 09:00:39;;;;;;;8.77;2.03;;;19.70;57.20;;;;;;4970989;28;20639;-72
2024/04/07 09:03:08;;;;;;;5.50;2.00;;;19.80;57.30;;;;;;4962972;28;20956;-72
2024/04/07 09:05:34;;;;;;;6.13;1.93;;;19.80;57.70;;;;;;4971902;28;20628;-72
2024/04/07 09:08:01;;;;;;;6.13;1.80;;;19.90;56.70;;;;;;4974361;28;20662;-72
2024/04/07 09:10:27;;;;;;;2.93;1.57;;;20.00;56.40;;;;;;4977801;28;20635;-72
2024/04/07 09:12:54;;;;;;;5.23;2.00;;;20.10;56.40;;;;;;5025013;28;21245;-72
2024/04/07 09:15:20;;;;;;;5.60;2.00;;;20.20;55.50;;;;;;4982890;28;20640;-72
2024/04/07 09:17:47;;;;;;;7.67;3.13;;;20.40;56.50;;;;;;4970627;28;20633;-73
2024/04/07 09:20:21;;;;;;;5.83;2.17;;;20.50;58.30;;;;;;4975545;28;20233;-73
2024/04/07 09:22:47;;;;;;;3.27;2.00;;;20.70;59.00;;;;;;4968575;28;20630;-73
2024/04/07 09:25:14;;;;;;;5.53;2.43;;;20.50;58.10;;;;;;4968852;28;20673;-73
2024/04/07 09:27:41;;;;;;;5.60;2.00;;;20.60;59.40;;;;;;4982359;28;20670;-73
2024/04/07 09:30:08;;;;;;;8.80;2.67;;;20.70;57.90;;;;;;4990209;28;20634;-73
2024/04/07 09:32:36;;;;;;;2.60;1.80;;;20.80;59.20;;;;;;4974775;28;20645;-72
2024/04/07 09:35:03;;;;;;;9.80;2.03;;;21.00;59.90;;;;;;4995492;28;20622;-72
2024/04/07 09:37:31;;;;;;;6.33;2.13;;;21.00;59.60;;;;;;4979389;28;20633;-72
2024/04/07 09:39:57;;;;;;;4.30;2.00;;;21.10;58.60;;;;;;4989494;28;20625;-72
2024/04/07 09:42:26;;;;;;;6.67;2.20;;;21.00;58.80;;;;;;4968671;28;21273;-72
2024/04/07 09:44:57;;;;;;;3.00;1.73;;;21.00;58.60;;;;;;4974464;28;20730;-72
2024/04/07 09:47:26;;;;;;;6.57;1.90;;;21.00;58.30;;;;;;4978005;28;20743;-72
2024/04/07 09:49:57;;;;;;;3.93;1.80;;;21.00;58.70;;;;;;4973038;28;20629;-73
2024/04/07 09:52:31;;;;;;;6.27;2.00;;;20.90;60.80;;;;;;4969809;28;20635;-71
2024/04/07 09:55:03;;;;;;;8.97;2.17;;;21.00;59.80;;;;;;4990597;28;20632;-71
2024/04/07 09:57:30;;;;;;;4.27;2.23;;;20.90;59.50;;;;;;4977152;28;20637;-72
2024/04/07 09:59:57;;;;;;;9.93;2.40;;;20.90;58.10;;;;;;4971754;28;20638;-73
2024/04/07 10:02:24;;;;;;;3.97;1.63;;;21.00;58.70;;;;;;4964227;28;20733;-72
2024/04/07 10:04:51;;;;;;;6.33;1.80;;;21.00;58.10;;;;;;4974872;28;20628;-72
2024/04/07 10:07:19;;;;;;;9.50;5.77;;;21.00;57.90;;;;;;4969561;28;21208;-72
2024/04/07 10:09:47;;;;;;;4.13;1.67;;;21.10;57.90;;;;;;4966143;28;20690;-72
2024/04/07 10:12:25;;;;;;;4.83;2.40;;;21.20;58.60;;;;;;4966240;28;21041;-72
2024/04/07 10:14:51;;;;;;;5.23;2.30;;;21.20;56.60;;;;;;4983440;28;20679;-71
2024/04/07 10:17:18;;;;;;;5.80;2.40;;;21.20;56.60;;;;;;4968336;28;20622;-72
2024/04/07 10:19:44;;;;;;;3.87;2.07;;;21.30;57.20;;;;;;4978244;28;20199;-72
2024/04/07 10:22:12;;;;;;;5.70;2.33;;;21.40;57.30;;;;;;4997793;28;20625;-72
2024/04/07 10:24:40;;;;;;;8.50;2.37;;;21.60;55.60;;;;;;4984301;28;21228;-72
2024/04/07 10:27:10;;;;;;;2.97;1.50;;;21.70;55.20;;;;;;4974225;28;20633;-72
2024/04/07 10:29:39;;;;;;;4.50;1.77;;;21.70;55.50;;;;;;4974232;28;20625;-73
2024/04/07 10:32:18;;;;;;;4.50;2.03;;;21.70;54.90;;;;;;4968059;28;20626;-72
2024/04/07 10:34:58;;;;;;;7.23;2.53;;;21.90;56.80;;;;;;4966314;28;20642;-72
2024/04/07 10:37:26;;;;;;;5.40;1.93;;;22.10;56.90;;;;;;4980005;28;20625;-72
2024/04/07 10:39:52;;;;;;;6.57;2.07;;;22.30;55.60;;;;;;5009162;28;20645;-72
2024/04/07 10:42:18;;;;;;;10.53;2.20;;;22.40;55.90;;;;;;4969665;28;20627;-72
2024/04/07 10:44:46;;;;;;;8.57;2.10;;;22.50;56.30;;;;;;4976613;28;20215;-72
2024/04/07 10:47:12;;;;;;;3.47;1.60;;;22.40;55.00;;;;;;4975433;28;20637;-72
2024/04/07 10:49:38;;;;;;;5.00;2.13;;;22.50;54.80;;;;;;4996801;28;20634;-72
2024/04/07 10:52:12;;;;;;;3.93;1.87;;;22.50;55.10;;;;;;4969180;28;20626;-72
2024/04/07 10:54:39;;;;;;;5.07;1.80;;;22.50;54.90;;;;;;4961239;28;20197;-73
2024/04/07 10:57:06;;;;;;;7.03;1.87;;;22.60;55.20;;;;;;4971413;28;20668;-72
2024/04/07 10:59:32;;;;;;;8.30;2.03;;;22.60;54.10;;;;;;4971436;28;20652;-72
2024/04/07 11:02:01;;;;;;;4.00;1.93;;;22.80;54.10;;;;;;4995004;28;20630;-73
2024/04/07 11:04:29;;;;;;;8.33;1.90;;;22.90;54.50;;;;;;5010857;28;20667;-73
2024/04/07 11:06:56;;;;;;;8.13;2.20;;;22.90;54.90;;;;;;5001903;28;20652;-73
2024/04/07 11:09:22;;;;;;;9.67;2.33;;;22.90;54.10;;;;;;4969544;28;20693;-73
2024/04/07 11:11:49;;;;;;;2.70;1.73;;;23.00;54.40;;;;;;4975836;28;20637;-73
2024/04/07 11:14:14;;;;;;;5.13;1.63;;;22.90;54.40;;;;;;4974946;28;20215;-73
2024/04/07 11:16:42;;;;;;;5.60;1.87;;;22.50;53.20;;;;;;4992339;28;20623;-72
2024/04/07 11:19:16;;;;;;;3.47;2.00;;;22.60;54.60;;;;;;4985698;28;20213;-73
2024/04/07 11:21:43;;;;;;;3.87;2.40;;;22.50;53.90;;;;;;4962974;28;20719;-73
2024/04/07 11:24:09;;;;;;;6.43;2.40;;;22.60;55.10;;;;;;4991342;28;20618;-73
2024/04/07 11:26:36;;;;;;;6.60;2.60;;;22.90;55.10;;;;;;4976600;28;20729;-72
2024/04/07 11:29:04;;;;;;;8.13;2.40;;;23.30;54.60;;;;;;5007527;28;20560;-72
2024/04/07 11:31:30;;;;;;;4.17;1.90;;;23.60;54.10;;;;;;4971523;28;20618;-72
2024/04/07 11:33:58;;;;;;;3.30;2.00;;;23.80;53.80;;;;;;4986973;28;21071;-72
2024/04/07 11:36:27;;;;;;;7.30;2.40;;;24.00;54.00;;;;;;4991612;28;20653;-73
2024/04/07 11:38:52;;;;;;;6.77;2.40;;;24.10;53.90;;;;;;4972056;28;20621;-71
2024/04/07 11:41:19;;;;;;;3.90;1.90;;;24.40;53.00;;;;;;5009277;28;20629;-71
2024/04/07 11:43:45;;;;;;;4.80;2.00;;;24.60;53.10;;;;;;4982508;28;20202;-72
2024/04/07 11:46:12;;;;;;;6.83;2.03;;;24.70;52.00;;;;;;4987522;28;20660;-72
2024/04/07 11:48:38;;;;;;;5.20;2.13;;;24.80;52.50;;;;;;4970858;28;20264;-73
2024/04/07 11:51:05;;;;;;;6.03;2.77;;;25.00;53.20;;;;;;4960080;28;20681;-73
2024/04/07 11:53:32;;;;;;;7.37;2.40;;;25.00;52.70;;;;;;4960634;28;20626;-72
2024/04/07 11:55:59;;;;;;;7.13;2.40;;;25.30;52.70;;;;;;4971242;28;21128;-73
2024/04/07 11:58:25;;;;;;;5.80;2.63;;;25.70;52.40;;;;;;4964588;28;20641;-73
2024/04/07 12:00:52;;;;;;;5.83;1.80;;;25.90;51.90;;;;;;4978685;28;20971;-72
2024/04/07 12:03:18;;;;;;;10.33;2.73;;;26.10;50.20;;;;;;4970725;28;20734;-73
2024/04/07 12:05:45;;;;;;;7.00;2.50;;;25.80;51.20;;;;;;4976593;28;21178;-73
2024/04/07 12:08:11;;;;;;;3.17;1.73;;;25.70;51.30;;;;;;4978131;28;20258;-72
2024/04/07 12:10:39;;;;;;;9.00;2.90;;;25.50;51.10;;;;;;4991863;28;20690;-73
2024/04/07 12:13:06;;;;;;;4.90;2.60;;;25.30;51.70;;;;;;5020754;28;20199;-72
2024/04/07 12:15:32;;;;;;;5.60;2.30;;;25.10;51.70;;;;;;4982335;28;20628;-72
2024/04/07 12:17:59;;;;;;;3.87;2.27;;;25.00;51.80;;;;;;4992427;28;21105;-72
2024/04/07 12:20:24;;;;;;;6.83;2.27;;;25.00;52.50;;;;;;4987897;28;20191;-72
2024/04/07 12:22:51;;;;;;;8.10;2.40;;;25.10;52.30;;;;;;4970740;28;21159;-72
2024/04/07 12:25:17;;;;;;;6.13;2.50;;;25.10;52.10;;;;;;4986311;28;20606;-73
2024/04/07 12:27:45;;;;;;;4.90;2.13;;;24.90;51.90;;;;;;5004310;28;20749;-72
2024/04/07 12:30:11;;;;;;;4.77;2.20;;;24.70;51.90;;;;;;5019210;28;20404;-72
2024/04/07 12:32:38;;;;;;;5.57;2.10;;;24.70;52.40;;;;;;4978678;28;20626;-73
2024/04/07 12:35:04;;;;;;;8.13;2.33;;;24.70;52.00;;;;;;4990407;28;20636;-72
2024/04/07 12:37:31;;;;;;;4.07;2.27;;;24.80;52.30;;;;;;4970029;28;20699;-72
2024/04/07 12:39:57;;;;;;;3.77;1.93;;;25.00;52.40;;;;;;5004160;28;20622;-72
2024/04/07 12:42:26;;;;;;;8.30;2.50;;;25.10;52.00;;;;;;4975275;28;20629;-72
2024/04/07 12:44:53;;;;;;;4.57;2.13;;;25.10;51.20;;;;;;5000778;28;20211;-72
2024/04/07 12:47:22;;;;;;;6.07;2.43;;;25.00;51.80;;;;;;4976275;28;20630;-72
2024/04/07 12:49:48;;;;;;;8.33;2.20;;;25.10;50.70;;;;;;4979644;28;20717;-72